createdAt,value
2023-05-23T00:00:03.038Z,5.03
2023-05-23T00:02:30.667Z,5.45
2023-05-23T00:04:59.155Z,16.70
2023-05-23T00:07:27.157Z,3.15
2023-05-23T00:09:54.571Z,7.60
2023-05-23T00:12:23.467Z,15.50
2023-05-23T00:14:53.453Z,9.70
2023-05-23T00:17:22.044Z,21.27
2023-05-23T00:19:49.515Z,16.48
2023-05-23T00:22:17.378Z,12.27
2023-05-23T00:24:44.960Z,11.43
2023-05-23T00:27:12.402Z,10.98
2023-05-23T00:29:41.245Z,14.77
2023-05-23T00:32:08.668Z,12.00
2023-05-23T00:34:36.591Z,11.63
2023-05-23T00:37:05.006Z,12.02
2023-05-23T00:39:32.449Z,20.75
2023-05-23T00:41:59.938Z,12.85
2023-05-23T00:44:27.341Z,9.77
2023-05-23T00:46:58.443Z,9.40
2023-05-23T00:49:28.021Z,13.05
2023-05-23T00:51:55.687Z,7.22
2023-05-23T00:54:29.164Z,9.48
2023-05-23T00:56:56.909Z,14.60
2023-05-23T00:59:25.960Z,10.85
2023-05-23T01:01:57.250Z,11.52
2023-05-23T01:04:26.555Z,6.45
2023-05-23T01:06:55.262Z,9.82
2023-05-23T01:09:24.396Z,8.13
2023-05-23T01:12:04.776Z,7.53
2023-05-23T01:14:38.872Z,7.53
2023-05-23T01:17:14.140Z,3.72
2023-05-23T01:19:53.933Z,6.57
2023-05-23T01:22:34.153Z,9.88
2023-05-23T01:25:17.249Z,4.20
2023-05-23T01:27:54.425Z,1.40
2023-05-23T01:30:22.348Z,7.18
2023-05-23T01:32:53.474Z,0.10
2023-05-23T01:35:27.038Z,0.00
2023-05-23T01:37:55.140Z,0.00
2023-05-23T01:40:23.286Z,0.00
2023-05-23T01:42:52.761Z,0.13
2023-05-23T01:45:21.351Z,2.63
2023-05-23T01:47:51.815Z,0.00
2023-05-23T01:50:19.657Z,0.22
2023-05-23T01:52:47.969Z,0.00
2023-05-23T01:55:22.976Z,1.75
2023-05-23T01:57:54.590Z,0.45
2023-05-23T02:00:22.204Z,1.05
2023-05-23T02:02:52.240Z,4.15
2023-05-23T02:05:19.798Z,4.28
2023-05-23T02:07:47.250Z,8.65
2023-05-23T02:10:14.826Z,2.08
2023-05-23T02:12:42.285Z,4.30
2023-05-23T02:15:11.715Z,3.15
2023-05-23T02:17:39.697Z,2.20
2023-05-23T02:20:08.617Z,5.07
2023-05-23T02:22:38.792Z,7.25
2023-05-23T02:25:07.713Z,4.72
2023-05-23T02:27:35.189Z,1.38
2023-05-23T02:30:04.913Z,3.20
2023-05-23T02:32:34.006Z,5.07
2023-05-23T02:35:01.777Z,4.28
2023-05-23T02:37:29.486Z,5.20
2023-05-23T02:39:57.489Z,1.63
2023-05-23T02:42:24.903Z,3.17
2023-05-23T02:44:52.331Z,3.40
2023-05-23T02:47:19.905Z,1.85
2023-05-23T02:49:48.881Z,1.70
2023-05-23T02:52:17.928Z,7.60
2023-05-23T02:54:45.652Z,2.53
2023-05-23T02:57:13.061Z,5.22
2023-05-23T02:59:41.088Z,4.55
2023-05-23T03:02:08.577Z,9.10
2023-05-23T03:04:38.152Z,8.23
2023-05-23T03:07:11.641Z,4.38
2023-05-23T03:09:48.151Z,2.00
2023-05-23T03:12:15.772Z,4.93
2023-05-23T03:14:43.321Z,0.60
2023-05-23T03:17:14.500Z,1.88
2023-05-23T03:19:42.115Z,3.45
2023-05-23T03:22:13.295Z,6.43
2023-05-23T03:24:40.876Z,8.82
2023-05-23T03:27:08.659Z,6.63
2023-05-23T03:29:36.269Z,7.20
2023-05-23T03:32:03.953Z,7.47
2023-05-23T03:34:35.133Z,5.05
2023-05-23T03:37:02.706Z,4.00
2023-05-23T03:39:31.807Z,5.25
2023-05-23T03:41:59.417Z,5.07
2023-05-23T03:44:27.202Z,4.78
2023-05-23T03:46:54.823Z,3.80
2023-05-23T03:49:22.646Z,7.70
2023-05-23T03:51:51.031Z,6.03
2023-05-23T03:54:19.191Z,6.40
2023-05-23T03:56:48.149Z,4.32
2023-05-23T03:59:15.900Z,6.60
2023-05-23T04:01:43.701Z,3.63
2023-05-23T04:04:11.475Z,2.17
2023-05-23T04:06:39.743Z,6.38
2023-05-23T04:09:07.410Z,4.15
2023-05-23T04:11:35.263Z,3.70
2023-05-23T04:14:05.803Z,5.70
2023-05-23T04:16:33.766Z,3.20
2023-05-23T04:19:04.194Z,5.25
2023-05-23T04:21:33.206Z,4.15
2023-05-23T04:24:02.976Z,2.50
2023-05-23T04:26:30.532Z,3.13
2023-05-23T04:28:59.431Z,2.92
2023-05-23T04:31:28.235Z,1.65
2023-05-23T04:33:56.237Z,1.50
2023-05-23T04:36:25.746Z,5.82
2023-05-23T04:38:53.778Z,1.15
2023-05-23T04:41:23.469Z,1.77
2023-05-23T04:43:54.366Z,4.38
2023-05-23T04:46:26.800Z,1.25
2023-05-23T04:48:56.450Z,0.47
2023-05-23T04:51:23.926Z,2.20
2023-05-23T04:53:52.526Z,4.97
2023-05-23T04:56:22.239Z,5.28
2023-05-23T04:58:49.726Z,3.33
2023-05-23T05:01:17.390Z,1.88
2023-05-23T05:03:44.917Z,2.70
2023-05-23T05:06:14.890Z,3.55
2023-05-23T05:08:42.314Z,2.10
2023-05-23T05:11:11.433Z,2.13
2023-05-23T05:13:38.858Z,4.13
2023-05-23T05:16:06.851Z,4.55
2023-05-23T05:18:34.903Z,4.55
2023-05-23T05:21:02.331Z,3.30
2023-05-23T05:23:33.259Z,3.67
2023-05-23T05:26:01.460Z,5.90
2023-05-23T05:28:29.129Z,4.70
2023-05-23T05:30:59.439Z,5.13
2023-05-23T05:33:28.269Z,7.05
2023-05-23T05:35:55.748Z,2.60
2023-05-23T05:38:23.178Z,4.22
2023-05-23T05:40:51.894Z,6.43
2023-05-23T05:43:19.462Z,4.05
2023-05-23T05:45:46.904Z,8.77
2023-05-23T05:48:14.467Z,8.05
2023-05-23T05:50:45.113Z,9.60
2023-05-23T05:53:13.704Z,7.90
2023-05-23T05:55:41.237Z,6.88
2023-05-23T05:58:10.125Z,8.30
2023-05-23T06:00:42.291Z,4.93
2023-05-23T06:03:10.154Z,6.38
2023-05-23T06:05:39.416Z,7.78
2023-05-23T06:08:06.982Z,7.80
2023-05-23T06:10:35.035Z,5.05
2023-05-23T06:13:02.467Z,2.40
2023-05-23T06:15:31.490Z,5.80
2023-05-23T06:17:59.012Z,7.43
2023-05-23T06:20:26.530Z,6.20
2023-05-23T06:22:54.300Z,9.27
2023-05-23T06:25:21.763Z,5.70
2023-05-23T06:27:50.013Z,8.80
2023-05-23T06:30:17.709Z,7.60
2023-05-23T06:32:46.503Z,7.90
2023-05-23T06:35:13.959Z,5.40
2023-05-23T06:37:45.504Z,8.15
2023-05-23T06:40:14.144Z,4.18
2023-05-23T06:42:44.199Z,5.05
2023-05-23T06:45:14.221Z,5.97
2023-05-23T06:47:43.807Z,8.77
2023-05-23T06:50:13.141Z,7.47
2023-05-23T06:52:42.594Z,9.85
2023-05-23T06:55:14.371Z,7.93
2023-05-23T06:57:41.814Z,8.02
2023-05-23T07:00:10.286Z,6.80
2023-05-23T07:02:37.852Z,8.55
2023-05-23T07:05:06.170Z,7.32
2023-05-23T07:07:34.992Z,6.95
2023-05-23T07:10:02.547Z,6.18
2023-05-23T07:12:29.973Z,7.65
2023-05-23T07:14:57.615Z,8.43
2023-05-23T07:17:25.474Z,4.47
2023-05-23T07:19:52.961Z,9.38
2023-05-23T07:22:20.407Z,8.10
2023-05-23T07:24:49.168Z,5.28
2023-05-23T07:27:16.707Z,7.82
2023-05-23T07:29:44.239Z,7.22
2023-05-23T07:32:11.703Z,5.70
2023-05-23T07:34:39.310Z,2.88
2023-05-23T07:37:07.251Z,3.67
2023-05-23T07:39:35.567Z,5.43
2023-05-23T07:42:04.813Z,4.85
2023-05-23T07:44:32.213Z,4.78
2023-05-23T07:46:59.757Z,4.40
2023-05-23T07:49:27.306Z,4.90
2023-05-23T07:51:54.735Z,3.70
2023-05-23T07:54:22.725Z,4.00
2023-05-23T07:56:50.405Z,4.50
2023-05-23T07:59:19.155Z,2.72
2023-05-23T08:01:46.685Z,4.22
2023-05-23T08:04:14.619Z,3.10
2023-05-23T08:06:51.944Z,4.10
2023-05-23T08:09:24.626Z,4.70
2023-05-23T08:11:52.110Z,3.45
2023-05-23T08:14:21.650Z,4.13
2023-05-23T08:16:49.207Z,3.30
2023-05-23T08:19:16.740Z,2.42
2023-05-23T08:21:44.230Z,2.55
2023-05-23T08:24:14.796Z,5.00
2023-05-23T08:26:42.705Z,4.70
2023-05-23T08:29:10.667Z,3.85
2023-05-23T08:31:39.463Z,3.72
2023-05-23T08:34:07.656Z,6.15
2023-05-23T08:36:36.444Z,4.80
2023-05-23T08:39:05.156Z,6.97
2023-05-23T08:41:32.680Z,6.10
2023-05-23T08:44:00.222Z,3.80
2023-05-23T08:46:28.127Z,6.35
2023-05-23T08:48:57.475Z,4.35
2023-05-23T08:51:27.480Z,1.30
2023-05-23T08:53:56.118Z,4.75
2023-05-23T08:56:25.801Z,4.05
2023-05-23T08:58:54.363Z,2.72
2023-05-23T09:01:24.079Z,2.63
2023-05-23T09:03:52.669Z,2.28
2023-05-23T09:10:10.193Z,2.20
2023-05-23T09:12:37.945Z,1.73
2023-05-23T09:15:06.418Z,0.35
2023-05-23T09:17:33.972Z,1.90
2023-05-23T09:20:01.642Z,1.48
2023-05-23T09:22:29.788Z,1.27
2023-05-23T09:24:58.037Z,0.93
2023-05-23T09:27:26.912Z,1.27
2023-05-23T09:29:54.463Z,1.95
2023-05-23T09:32:22.723Z,1.08
2023-05-23T09:34:57.797Z,0.47
2023-05-23T09:37:31.095Z,1.23
2023-05-23T09:40:00.655Z,0.35
2023-05-23T09:42:35.069Z,0.82
2023-05-23T09:45:04.766Z,0.40
2023-05-23T09:47:32.690Z,0.10
2023-05-23T09:50:00.198Z,0.93
2023-05-23T09:52:27.755Z,1.25
2023-05-23T09:54:55.698Z,0.75
2023-05-23T09:57:24.326Z,0.60
2023-05-23T09:59:56.394Z,0.85
2023-05-23T10:02:55.065Z,1.45
2023-05-23T10:05:39.097Z,0.90
2023-05-23T10:08:11.915Z,0.73
2023-05-23T10:11:33.943Z,1.33
2023-05-23T10:14:03.411Z,1.48
2023-05-23T10:16:41.100Z,2.00
2023-05-23T10:19:14.279Z,2.10
2023-05-23T10:21:46.840Z,3.05
2023-05-23T10:24:15.343Z,6.13
2023-05-23T10:26:44.825Z,3.53
2023-05-23T10:29:12.292Z,3.97
2023-05-23T10:31:41.832Z,4.90
2023-05-23T10:34:18.503Z,4.70
2023-05-23T10:36:54.418Z,4.28
2023-05-23T10:39:37.373Z,4.95
2023-05-23T10:42:11.651Z,2.45
2023-05-23T10:44:39.090Z,3.97
2023-05-23T10:47:08.091Z,4.03
2023-05-23T10:49:39.636Z,3.75
2023-05-23T10:52:08.351Z,3.15
2023-05-23T10:54:36.972Z,4.25
2023-05-23T10:57:05.356Z,3.83
2023-05-23T10:59:33.186Z,4.22
2023-05-23T11:02:02.328Z,3.88
2023-05-23T11:04:31.532Z,3.53
2023-05-23T11:06:59.400Z,4.18
2023-05-23T11:09:26.877Z,3.58
2023-05-23T11:12:02.684Z,3.90
2023-05-23T11:14:35.015Z,5.50
2023-05-23T11:17:15.872Z,4.68
2023-05-23T11:19:57.663Z,4.97
2023-05-23T11:22:29.554Z,5.30
2023-05-23T11:24:58.459Z,3.65
2023-05-23T11:27:30.449Z,3.67
2023-05-23T11:30:04.703Z,5.97
2023-05-23T11:32:32.722Z,6.55
2023-05-23T11:35:02.956Z,2.38
2023-05-23T11:37:31.049Z,4.18
2023-05-23T11:39:58.932Z,4.32
2023-05-23T11:42:26.731Z,3.60
2023-05-23T11:44:54.702Z,4.65
2023-05-23T11:47:22.304Z,4.15
2023-05-23T11:49:49.789Z,4.72
2023-05-23T11:52:18.786Z,3.53
2023-05-23T11:54:46.379Z,4.78
2023-05-23T11:57:14.909Z,0.85
2023-05-23T11:59:43.412Z,3.20
2023-05-23T12:02:10.921Z,4.63
2023-05-23T12:04:38.394Z,3.85
2023-05-23T12:07:07.597Z,3.28
2023-05-23T12:09:44.079Z,3.83
2023-05-23T12:12:11.836Z,3.17
2023-05-23T12:14:44.461Z,4.32
2023-05-23T12:17:13.438Z,3.72
2023-05-23T12:19:46.363Z,2.17
2023-05-23T12:22:13.823Z,1.42
2023-05-23T12:24:47.819Z,1.92
2023-05-23T12:27:17.326Z,1.63
2023-05-23T12:29:52.025Z,3.10
2023-05-23T12:32:19.495Z,2.72
2023-05-23T12:34:46.936Z,2.65
2023-05-23T12:39:45.540Z,3.20
2023-05-23T12:42:14.368Z,3.08
2023-05-23T12:44:42.055Z,2.03
2023-05-23T12:47:10.290Z,3.40
2023-05-23T12:49:38.103Z,3.30
2023-05-23T12:52:05.664Z,2.25
2023-05-23T12:54:33.080Z,2.45
2023-05-23T12:57:03.415Z,2.28
2023-05-23T12:59:32.210Z,3.70
2023-05-23T13:02:00.479Z,4.40
2023-05-23T13:04:30.197Z,3.20
2023-05-23T13:06:59.314Z,2.42
2023-05-23T13:09:26.729Z,2.58
2023-05-23T13:11:54.161Z,2.75
2023-05-23T13:14:21.635Z,2.97
2023-05-23T13:16:50.518Z,3.72
2023-05-23T13:19:18.123Z,3.53
2023-05-23T13:21:46.672Z,3.13
2023-05-23T13:24:16.174Z,3.38
2023-05-23T13:26:43.789Z,1.58
2023-05-23T13:29:11.232Z,2.53
2023-05-23T13:31:38.777Z,3.65
2023-05-23T13:34:07.643Z,1.70
2023-05-23T13:36:35.969Z,3.10
2023-05-23T13:39:05.720Z,1.95
2023-05-23T13:41:33.137Z,1.88
2023-05-23T13:44:00.555Z,3.05
2023-05-23T13:46:27.989Z,1.42
2023-05-23T13:48:55.435Z,0.55
2023-05-23T13:51:24.180Z,0.95
2023-05-23T13:53:52.055Z,1.92
2023-05-23T13:56:19.479Z,1.77
2023-05-23T13:58:46.920Z,2.90
2023-05-23T14:01:14.406Z,2.65
2023-05-23T14:03:42.937Z,1.17
2023-05-23T14:06:10.335Z,3.45
2023-05-23T14:08:39.081Z,3.85
2023-05-23T14:11:06.537Z,2.30
2023-05-23T14:13:33.979Z,3.67
2023-05-23T14:16:01.600Z,1.40
2023-05-23T14:18:29.134Z,3.03
2023-05-23T14:20:56.623Z,1.42
2023-05-23T14:23:24.053Z,1.38
2023-05-23T14:25:52.934Z,1.35
2023-05-23T14:28:20.481Z,2.70
2023-05-23T14:30:50.552Z,3.03
2023-05-23T14:33:39.542Z,2.25
2023-05-23T14:36:15.553Z,4.43
2023-05-23T14:38:45.445Z,3.58
2023-05-23T14:41:14.761Z,1.10
2023-05-23T14:43:49.603Z,4.13
2023-05-23T14:46:20.961Z,2.40
2023-05-23T14:48:48.393Z,2.42
2023-05-23T14:51:24.092Z,2.20
2023-05-23T14:54:09.234Z,2.03
2023-05-23T14:56:41.177Z,1.73
2023-05-23T14:59:11.213Z,2.72
2023-05-23T15:05:50.706Z,1.88
2023-05-23T15:08:20.270Z,2.15
2023-05-23T15:10:50.015Z,2.72
2023-05-23T15:13:19.005Z,1.92
2023-05-23T15:15:46.452Z,3.15
2023-05-23T15:18:24.606Z,1.85
2023-05-23T15:21:00.316Z,1.67
2023-05-23T15:23:27.823Z,1.10
2023-05-23T15:25:55.517Z,4.00
2023-05-23T15:28:24.507Z,2.17
2023-05-23T15:30:54.192Z,1.00
2023-05-23T15:33:21.924Z,1.13
2023-05-23T15:35:51.925Z,0.35
2023-05-23T15:38:20.256Z,2.17
2023-05-23T15:40:48.763Z,0.68
2023-05-23T15:43:16.571Z,0.63
2023-05-23T15:45:45.369Z,0.75
2023-05-23T15:48:12.928Z,2.00
2023-05-23T15:50:40.604Z,2.55
2023-05-23T15:53:08.616Z,2.08
2023-05-23T15:55:39.762Z,0.43
2023-05-23T15:58:09.435Z,1.73
2023-05-23T16:00:36.914Z,0.73
2023-05-23T16:03:05.855Z,1.40
2023-05-23T16:05:33.714Z,1.42
2023-05-23T16:08:01.234Z,0.95
2023-05-23T16:10:28.692Z,1.38
2023-05-23T16:12:57.114Z,2.13
2023-05-23T16:15:24.558Z,1.00
2023-05-23T16:17:52.017Z,0.52
2023-05-23T16:20:20.929Z,0.30
2023-05-23T16:22:48.396Z,0.90
2023-05-23T16:25:15.888Z,10.52
2023-05-23T16:27:43.395Z,2.92
2023-05-23T16:30:11.503Z,1.33
2023-05-23T16:32:38.999Z,2.25
2023-05-23T16:35:07.420Z,2.10
2023-05-23T16:37:36.187Z,2.05
2023-05-23T16:40:03.698Z,2.30
2023-05-23T16:42:31.116Z,2.00
2023-05-23T16:44:58.623Z,2.35
2023-05-23T16:47:26.726Z,2.17
2023-05-23T16:49:54.313Z,1.75
2023-05-23T16:52:21.801Z,1.23
2023-05-23T16:54:50.639Z,1.42
2023-05-23T16:58:17.568Z,1.52
2023-05-23T17:01:45.490Z,1.17
2023-05-23T17:05:11.572Z,0.65
2023-05-23T17:08:37.533Z,1.00
2023-05-23T17:12:04.892Z,0.85
2023-05-23T17:14:48.896Z,0.82
2023-05-23T17:18:16.683Z,0.90
2023-05-23T17:21:41.591Z,2.65
2023-05-23T17:25:08.202Z,1.13
2023-05-23T17:28:03.705Z,1.23
2023-05-23T17:31:30.820Z,0.50
2023-05-23T17:34:33.547Z,1.80
2023-05-23T17:37:50.335Z,0.95
2023-05-23T17:40:32.577Z,1.77
2023-05-23T17:43:18.102Z,2.10
2023-05-23T17:45:45.591Z,1.17
2023-05-23T17:49:11.794Z,0.90
2023-05-23T17:52:17.917Z,1.70
2023-05-23T17:55:42.542Z,0.88
2023-05-23T17:59:12.239Z,0.65
2023-05-23T18:02:38.200Z,1.83
2023-05-23T18:06:04.689Z,0.65
2023-05-23T18:09:30.631Z,1.33
2023-05-23T18:12:56.774Z,1.70
2023-05-23T18:16:24.062Z,0.80
2023-05-23T18:19:50.803Z,2.25
2023-05-23T18:23:14.847Z,0.55
2023-05-23T18:25:58.336Z,3.42
2023-05-23T18:29:24.267Z,1.25
2023-05-23T18:32:39.794Z,1.17
2023-05-23T18:36:06.759Z,3.17
2023-05-23T18:39:32.771Z,2.17
2023-05-23T18:42:58.748Z,1.00
2023-05-23T18:45:44.884Z,0.38
2023-05-23T18:49:12.142Z,1.20
2023-05-23T18:52:38.790Z,1.00
2023-05-23T18:55:08.433Z,1.63
2023-05-23T18:57:35.876Z,1.20
2023-05-23T19:00:04.107Z,1.27
2023-05-23T19:02:31.947Z,1.33
2023-05-23T19:05:00.754Z,2.53
2023-05-23T19:07:28.185Z,1.50
2023-05-23T19:09:55.628Z,0.60
2023-05-23T19:12:23.332Z,1.70
2023-05-23T19:14:50.762Z,3.30
2023-05-23T19:17:18.224Z,1.05
2023-05-23T19:19:45.690Z,0.95
2023-05-23T19:22:14.515Z,1.77
2023-05-23T19:24:42.173Z,1.27
2023-05-23T19:27:09.630Z,0.25
2023-05-23T19:29:37.298Z,0.77
2023-05-23T19:32:04.922Z,0.63
2023-05-23T19:34:32.900Z,2.05
2023-05-23T19:37:00.869Z,1.48
2023-05-23T19:39:29.609Z,0.40
2023-05-23T19:41:57.102Z,0.25
2023-05-23T19:44:24.523Z,1.05
2023-05-23T19:46:52.676Z,0.98
2023-05-23T19:49:20.862Z,1.27
2023-05-23T19:51:50.975Z,1.70
2023-05-23T19:54:18.629Z,1.13
2023-05-23T19:56:47.478Z,0.43
2023-05-23T19:59:14.913Z,1.13
2023-05-23T20:01:42.594Z,1.75
2023-05-23T20:04:12.742Z,1.60
2023-05-23T20:06:40.403Z,0.88
2023-05-23T20:09:07.871Z,0.40
2023-05-23T20:11:35.995Z,0.47
2023-05-23T20:14:04.728Z,0.40
2023-05-23T20:16:32.542Z,1.17
2023-05-23T20:19:00.343Z,1.27
2023-05-23T20:21:27.770Z,2.75
2023-05-23T20:23:55.300Z,1.33
2023-05-23T20:26:23.031Z,1.60
2023-05-23T20:28:50.513Z,1.13
2023-05-23T20:31:19.381Z,0.30
2023-05-23T20:33:46.838Z,1.10
2023-05-23T20:36:14.262Z,1.45
2023-05-23T20:38:42.009Z,0.30
2023-05-23T20:41:09.453Z,1.10
2023-05-23T20:43:37.990Z,0.47
2023-05-23T20:46:06.499Z,4.15
2023-05-23T20:48:35.272Z,0.10
2023-05-23T20:51:05.480Z,1.30
2023-05-23T20:53:33.287Z,0.93
2023-05-23T20:56:01.141Z,0.63
2023-05-23T20:58:28.661Z,0.50
2023-05-23T21:00:56.412Z,1.42
2023-05-23T21:03:23.952Z,1.25
2023-05-23T21:05:52.712Z,2.17
2023-05-23T21:08:21.040Z,1.40
2023-05-23T21:10:51.561Z,0.20
2023-05-23T21:13:21.074Z,0.82
2023-05-23T21:15:48.754Z,1.77
2023-05-23T21:18:16.213Z,1.15
2023-05-23T21:20:43.836Z,0.10
2023-05-23T21:23:12.775Z,0.57
2023-05-23T21:25:40.336Z,1.55
2023-05-23T21:28:07.756Z,0.45
2023-05-23T21:30:35.226Z,0.45
2023-05-23T21:33:02.769Z,1.13
2023-05-23T21:35:30.250Z,0.70
2023-05-23T21:37:57.765Z,0.17
2023-05-23T21:40:27.599Z,0.17
2023-05-23T21:42:55.031Z,0.95
2023-05-23T21:45:22.466Z,0.45
2023-05-23T21:47:49.992Z,0.20
2023-05-23T21:50:17.702Z,0.20
2023-05-23T21:52:45.104Z,2.92
2023-05-23T21:55:12.522Z,0.40
2023-05-23T21:57:41.264Z,1.05
2023-05-23T22:00:12.380Z,0.80
2023-05-23T22:02:40.033Z,0.20
2023-05-23T22:05:08.769Z,0.82
2023-05-23T22:07:36.584Z,1.40
2023-05-23T22:10:04.070Z,1.20
2023-05-23T22:12:32.184Z,1.67
2023-05-23T22:15:00.958Z,1.00
2023-05-23T22:17:29.538Z,0.20
2023-05-23T22:19:58.021Z,0.25
2023-05-23T22:22:25.503Z,1.13
2023-05-23T22:24:53.178Z,1.95
2023-05-23T22:27:20.608Z,0.35
2023-05-23T22:29:48.075Z,0.28
2023-05-23T22:32:16.827Z,0.47
2023-05-23T22:34:45.347Z,1.67
2023-05-23T22:37:12.780Z,0.65
2023-05-23T22:39:40.270Z,0.43
2023-05-23T22:42:07.833Z,1.02
2023-05-23T22:44:35.254Z,2.38
2023-05-23T22:47:03.681Z,0.30
2023-05-23T22:49:32.491Z,1.45
2023-05-23T22:52:00.002Z,2.95
2023-05-23T22:54:27.468Z,2.20
2023-05-23T22:56:55.709Z,1.42
2023-05-23T22:59:23.123Z,0.55
2023-05-23T23:01:51.070Z,0.40
2023-05-23T23:04:23.376Z,0.10
2023-05-23T23:06:55.043Z,0.20
2023-05-23T23:09:22.496Z,0.20
2023-05-23T23:11:49.934Z,0.10
2023-05-23T23:14:17.398Z,0.75
2023-05-23T23:16:46.193Z,0.10
2023-05-23T23:19:13.920Z,0.20
2023-05-23T23:21:41.332Z,0.13
2023-05-23T23:24:10.942Z,0.15
2023-05-23T23:26:38.639Z,1.00
2023-05-23T23:29:06.111Z,0.17
2023-05-23T23:31:33.547Z,0.80
2023-05-23T23:34:00.971Z,0.50
2023-05-23T23:36:28.384Z,0.65
2023-05-23T23:38:55.941Z,0.10
2023-05-23T23:41:24.679Z,0.20
2023-05-23T23:43:52.083Z,0.20
2023-05-23T23:46:20.800Z,0.10
2023-05-23T23:48:48.377Z,0.95
2023-05-23T23:51:15.820Z,2.55
2023-05-23T23:53:44.585Z,0.68
2023-05-23T23:56:14.303Z,0.32
2023-05-23T23:58:43.033Z,0.73
